Time;durP1;ratioP1;P1;durP2;ratioP2;P2;SDS_P1;SDS_P2;PMS_P1;PMS_P2;Temp;Humidity;BMP_temperature;BMP_pressure;BME280_temperature;BME280_humidity;BME280_pressure;Samples;Min_cycle;Max_cycle;Signal;HPM_P1;HPM_P2
2022/02/12 00:00:24;;;;;;;;;;;;;;;14.41;53.15;102995.28;1013540;29;715;-62
2022/02/12 00:01:15;;;;;;;;;;;;;;;14.40;53.71;102996.25;1013621;29;583;-63
2022/02/12 00:02:05;;;;;;;;;;;;;;;14.40;53.05;102996.25;1013171;29;860;-63
2022/02/12 00:02:56;;;;;;;;;;;;;;;14.42;52.93;102993.47;1012473;29;1567;-63
2022/02/12 00:03:46;;;;;;;;;;;;;;;14.40;53.74;102995.34;1010210;29;707;-62
2022/02/12 00:04:37;;;;;;;;;;;;;;;14.40;53.46;102998.00;1010825;29;702;-63
2022/02/12 00:05:27;;;;;;;;;;;;;;;14.38;53.29;102995.41;1010205;29;643;-62
2022/02/12 00:06:17;;;;;;;;;;;;;;;14.38;53.89;102994.53;1010225;29;860;-62
2022/02/12 00:07:09;;;;;;;;;;;;;;;14.39;53.91;102996.28;1010189;29;688;-63
2022/02/12 00:08:00;;;;;;;;;;;;;;;14.39;53.21;103001.63;1009607;29;776;-63
2022/02/12 00:08:50;;;;;;;;;;;;;;;14.35;52.94;102992.84;1010070;29;702;-62
2022/02/12 00:09:40;;;;;;;;;;;;;;;14.37;53.58;102992.78;1010128;29;659;-63
2022/02/12 00:10:31;;;;;;;;;;;;;;;14.36;53.35;102999.09;1010118;29;683;-63
2022/02/12 00:11:21;;;;;;;;;;;;;;;14.37;53.85;102993.66;1010204;29;673;-63
2022/02/12 00:12:12;;;;;;;;;;;;;;;14.37;53.72;102995.47;1010106;29;848;-63
2022/02/12 00:13:08;;;;;;;;;;;;;;;14.35;53.81;102995.53;1010140;29;826;-63
2022/02/12 00:13:58;;;;;;;;;;;;;;;14.36;53.14;102994.59;1010063;29;1070;-63
2022/02/12 00:14:49;;;;;;;;;;;;;;;14.34;53.06;102992.94;1010165;29;692;-63
2022/02/12 00:15:39;;;;;;;;;;;;;;;14.35;53.27;102994.66;1010445;29;647;-63
2022/02/12 00:16:30;;;;;;;;;;;;;;;14.34;53.54;102993.78;1010454;29;867;-63
2022/02/12 00:17:20;;;;;;;;;;;;;;;14.33;53.73;102985.84;1010053;29;710;-63
2022/02/12 00:18:11;;;;;;;;;;;;;;;14.33;53.31;102988.53;1010258;29;868;-63
2022/02/12 00:19:02;;;;;;;;;;;;;;;14.34;53.64;102987.56;1010133;29;675;-63
2022/02/12 00:19:52;;;;;;;;;;;;;;;14.33;53.68;102980.50;1010097;29;711;-63
2022/02/12 00:20:43;;;;;;;;;;;;;;;14.33;53.38;102975.13;1010139;29;810;-63
2022/02/12 00:21:33;;;;;;;;;;;;;;;14.32;53.05;102978.75;1010170;29;683;-63
2022/02/12 00:22:24;;;;;;;;;;;;;;;14.32;53.17;102978.75;1010048;29;749;-62
2022/02/12 00:23:16;;;;;;;;;;;;;;;14.32;53.08;102970.69;1010213;29;639;-62
2022/02/12 00:24:07;;;;;;;;;;;;;;;14.32;53.75;102968.88;1010150;29;691;-63
2022/02/12 00:24:57;;;;;;;;;;;;;;;14.32;53.72;102976.06;1009946;29;1902;-62
2022/02/12 00:25:48;;;;;;;;;;;;;;;14.31;53.98;102974.31;1010228;29;710;-62
2022/02/12 00:26:38;;;;;;;;;;;;;;;14.32;53.37;102974.25;1010184;29;634;-63
2022/02/12 00:27:28;;;;;;;;;;;;;;;14.31;53.26;102966.28;1010203;29;655;-62
2022/02/12 00:28:21;;;;;;;;;;;;;;;14.30;53.34;102969.91;1010123;29;708;-63
2022/02/12 00:29:12;;;;;;;;;;;;;;;14.30;53.57;102969.91;1010067;29;716;-63
2022/02/12 00:30:02;;;;;;;;;;;;;;;14.30;53.09;102967.22;1010210;29;635;-63
2022/02/12 00:30:52;;;;;;;;;;;;;;;14.29;53.74;102960.97;1009618;29;746;-63
2022/02/12 00:31:43;;;;;;;;;;;;;;;14.30;53.67;102961.84;1010100;29;656;-63
2022/02/12 00:32:33;;;;;;;;;;;;;;;14.30;53.57;102961.84;1009698;29;770;-61
2022/02/12 00:33:24;;;;;;;;;;;;;;;14.30;53.90;102960.03;1010072;29;917;-61
2022/02/12 00:34:14;;;;;;;;;;;;;;;14.30;53.74;102954.69;1006178;29;696;-61
2022/02/12 00:35:04;;;;;;;;;;;;;;;14.28;53.76;102942.28;1005941;29;936;-61
2022/02/12 00:35:55;;;;;;;;;;;;;;;14.28;53.13;102953.00;1010073;29;705;-61
2022/02/12 00:36:45;;;;;;;;;;;;;;;14.28;53.17;102944.94;1010042;29;706;-62
2022/02/12 00:37:36;;;;;;;;;;;;;;;14.27;53.30;102946.75;1009993;29;943;-61
2022/02/12 00:38:26;;;;;;;;;;;;;;;14.29;53.71;102949.38;1010172;29;674;-61
2022/02/12 00:39:17;;;;;;;;;;;;;;;14.29;53.77;102949.38;1010103;29;760;-61
2022/02/12 00:40:07;;;;;;;;;;;;;;;14.27;53.78;102953.94;1010041;29;631;-62
2022/02/12 00:40:57;;;;;;;;;;;;;;;14.25;53.75;102944.16;1009064;29;700;-61
2022/02/12 00:41:48;;;;;;;;;;;;;;;14.25;54.03;102949.53;1010088;29;791;-62
2022/02/12 00:42:38;;;;;;;;;;;;;;;14.26;53.94;102961.13;1010636;29;721;-62
2022/02/12 00:43:29;;;;;;;;;;;;;;;14.25;53.71;102949.53;1010626;29;797;-61
2022/02/12 00:44:19;;;;;;;;;;;;;;;14.25;53.66;102960.25;1010615;29;717;-61
2022/02/12 00:45:10;;;;;;;;;;;;;;;14.25;53.21;102944.16;1010114;29;1899;-63
2022/02/12 00:46:00;;;;;;;;;;;;;;;14.25;54.09;102952.19;1012734;29;1788;-63
2022/02/12 00:46:50;;;;;;;;;;;;;;;14.25;53.92;102951.31;1013463;29;670;-63
2022/02/12 00:47:41;;;;;;;;;;;;;;;14.25;53.63;102951.31;1013113;29;1847;-62
2022/02/12 00:48:31;;;;;;;;;;;;;;;14.23;53.71;102947.84;1013935;29;759;-61
2022/02/12 00:49:22;;;;;;;;;;;;;;;14.23;54.00;102946.03;1014088;29;709;-61
2022/02/12 00:50:12;;;;;;;;;;;;;;;14.23;53.43;102947.84;1013873;29;646;-61
2022/02/12 00:51:02;;;;;;;;;;;;;;;14.23;53.54;102948.72;1013873;29;1531;-61
2022/02/12 00:51:53;;;;;;;;;;;;;;;14.23;53.56;102940.66;1014940;29;821;-63
2022/02/12 00:52:43;;;;;;;;;;;;;;;14.22;54.01;102941.59;1013402;29;715;-63
2022/02/12 00:53:34;;;;;;;;;;;;;;;14.22;53.40;102946.09;1013456;29;628;-64
2022/02/12 00:54:24;;;;;;;;;;;;;;;14.23;53.53;102943.34;1015032;29;757;-64
2022/02/12 00:55:15;;;;;;;;;;;;;;;14.23;53.35;102946.03;1013367;29;682;-63
2022/02/12 00:56:05;;;;;;;;;;;;;;;14.21;54.08;102947.91;1013344;29;847;-63
2022/02/12 00:56:55;;;;;;;;;;;;;;;14.23;54.15;102948.72;1009315;29;1446;-62
2022/02/12 00:57:46;;;;;;;;;;;;;;;14.21;53.50;102942.56;1010573;29;745;-62
2022/02/12 00:58:36;;;;;;;;;;;;;;;14.21;54.00;102941.69;1010598;29;785;-66
2022/02/12 00:59:27;;;;;;;;;;;;;;;14.20;54.06;102932.75;1010700;29;698;-65
2022/02/12 01:00:17;;;;;;;;;;;;;;;14.21;53.57;102937.19;1010572;29;854;-65
2022/02/12 01:01:08;;;;;;;;;;;;;;;14.22;53.52;102936.25;1010463;29;663;-64
2022/02/12 01:01:58;;;;;;;;;;;;;;;14.21;53.41;102934.50;1010721;29;736;-65
2022/02/12 01:02:48;;;;;;;;;;;;;;;14.20;54.03;102931.88;1010623;29;778;-65
2022/02/12 01:03:39;;;;;;;;;;;;;;;14.21;53.41;102933.63;1006409;29;787;-64
2022/02/12 01:04:29;;;;;;;;;;;;;;;14.20;53.66;102932.75;1006438;29;900;-64
2022/02/12 01:05:20;;;;;;;;;;;;;;;14.21;54.16;102934.50;1013759;29;1982;-63
2022/02/12 01:06:10;;;;;;;;;;;;;;;14.21;54.23;102934.50;1013439;29;776;-65
2022/02/12 01:07:01;;;;;;;;;;;;;;;14.20;53.60;102932.75;1013226;29;814;-64
2022/02/12 01:07:51;;;;;;;;;;;;;;;14.20;54.32;102930.09;1013380;29;790;-64
2022/02/12 01:08:41;;;;;;;;;;;;;;;14.20;54.14;102931.88;1013406;29;866;-64
2022/02/12 01:09:32;;;;;;;;;;;;;;;14.18;54.25;102934.63;1013378;29;812;-64
2022/02/12 01:10:22;;;;;;;;;;;;;;;14.18;54.20;102934.63;1013407;29;679;-64
2022/02/12 01:11:16;;;;;;;;;;;;;;;14.18;53.63;102937.31;1013323;29;710;-64
2022/02/12 01:12:06;;;;;;;;;;;;;;;14.20;54.11;102935.44;1013340;29;1864;-63
2022/02/12 01:12:57;;;;;;;;;;;;;;;14.21;53.66;102930.94;1009152;29;773;-64
2022/02/12 01:13:47;;;;;;;;;;;;;;;14.20;53.64;102934.56;1009462;29;955;-65
2022/02/12 01:14:38;;;;;;;;;;;;;;;14.18;54.01;102937.31;1013783;29;744;-65
2022/02/12 01:15:28;;;;;;;;;;;;;;;14.19;53.57;102933.69;1013866;29;724;-65
2022/02/12 01:16:19;;;;;;;;;;;;;;;14.18;54.13;102928.41;1013899;29;651;-65
2022/02/12 01:17:10;;;;;;;;;;;;;;;14.19;53.97;102933.69;1013805;29;816;-65
2022/02/12 01:18:00;;;;;;;;;;;;;;;14.18;53.61;102934.63;1013724;29;825;-65
2022/02/12 01:18:51;;;;;;;;;;;;;;;14.18;54.41;102931.09;1014300;29;732;-65
2022/02/12 01:19:41;;;;;;;;;;;;;;;14.17;53.76;102930.22;1013709;29;646;-65
2022/02/12 01:20:31;;;;;;;;;;;;;;;14.17;53.81;102927.53;1013890;29;797;-65
2022/02/12 01:21:22;;;;;;;;;;;;;;;14.16;53.68;102930.28;1013808;29;865;-64
2022/02/12 01:22:12;;;;;;;;;;;;;;;14.16;53.54;102931.16;1013821;29;691;-64
2022/02/12 01:23:03;;;;;;;;;;;;;;;14.17;54.08;102926.66;1013830;29;850;-65
2022/02/12 01:23:53;;;;;;;;;;;;;;;14.15;53.99;102926.72;1013867;29;756;-65
2022/02/12 01:24:44;;;;;;;;;;;;;;;14.15;54.03;102934.78;1013236;29;749;-64
2022/02/12 01:25:34;;;;;;;;;;;;;;;14.15;53.88;102926.72;1013596;29;754;-64
2022/02/12 01:26:25;;;;;;;;;;;;;;;14.15;54.04;102924.06;1013864;29;666;-63
2022/02/12 01:27:15;;;;;;;;;;;;;;;14.14;53.87;102930.38;1013787;29;772;-65
2022/02/12 01:28:05;;;;;;;;;;;;;;;14.14;54.29;102927.72;1013797;29;713;-64
2022/02/12 01:28:56;;;;;;;;;;;;;;;14.13;53.79;102927.78;1013691;29;994;-64
2022/02/12 01:29:46;;;;;;;;;;;;;;;14.12;54.34;102926.91;1013796;29;878;-64
2022/02/12 01:30:37;;;;;;;;;;;;;;;14.13;54.27;102930.47;1013810;29;748;-64
2022/02/12 01:31:27;;;;;;;;;;;;;;;14.12;53.92;102924.22;1013748;29;877;-63
2022/02/12 01:32:17;;;;;;;;;;;;;;;14.10;54.33;102931.47;1013782;29;773;-64
2022/02/12 01:33:08;;;;;;;;;;;;;;;14.11;53.62;102927.84;1009851;29;728;-63
2022/02/12 01:33:58;;;;;;;;;;;;;;;14.13;54.12;102930.47;1009850;29;818;-65
2022/02/12 01:34:49;;;;;;;;;;;;;;;14.12;53.61;102926.03;1013491;29;1946;-65
2022/02/12 01:35:39;;;;;;;;;;;;;;;14.11;54.24;102921.63;1013812;29;831;-63
2022/02/12 01:36:30;;;;;;;;;;;;;;;14.10;53.86;102919.88;1013775;29;639;-64
2022/02/12 01:37:21;;;;;;;;;;;;;;;14.12;53.67;102918.88;1013711;29;707;-64
2022/02/12 01:38:11;;;;;;;;;;;;;;;14.12;54.01;102918.88;1014299;29;788;-64
2022/02/12 01:39:02;;;;;;;;;;;;;;;14.10;53.92;102915.38;1014402;29;690;-64
2022/02/12 01:39:52;;;;;;;;;;;;;;;14.10;53.83;102920.75;1013643;29;794;-64
2022/02/12 01:40:44;;;;;;;;;;;;;;;14.10;54.12;102926.09;1013779;29;803;-64
2022/02/12 01:41:34;;;;;;;;;;;;;;;14.09;53.84;102923.50;1013800;29;764;-64
2022/02/12 01:42:24;;;;;;;;;;;;;;;14.09;54.26;102921.69;1014323;29;826;-64
2022/02/12 01:43:15;;;;;;;;;;;;;;;14.08;54.46;102916.38;1013797;29;748;-65
2022/02/12 01:44:05;;;;;;;;;;;;;;;14.11;54.26;102919.81;1014152;29;1150;-63
2022/02/12 01:44:56;;;;;;;;;;;;;;;14.10;54.41;102918.06;1013760;29;794;-62
2022/02/12 01:45:46;;;;;;;;;;;;;;;14.10;54.13;102915.38;1013765;29;712;-62
2022/02/12 01:46:37;;;;;;;;;;;;;;;14.09;54.30;102912.75;1014262;29;726;-62
2022/02/12 01:47:27;;;;;;;;;;;;;;;14.08;53.48;102906.53;1013728;29;640;-62
2022/02/12 01:48:18;;;;;;;;;;;;;;;14.10;53.67;102906.47;1013769;29;898;-62
2022/02/12 01:49:08;;;;;;;;;;;;;;;14.09;53.89;102907.41;1013748;29;763;-61
2022/02/12 01:49:59;;;;;;;;;;;;;;;14.08;53.99;102911.91;1013757;29;709;-61
2022/02/12 01:50:49;;;;;;;;;;;;;;;14.08;53.53;102906.53;1013740;29;771;-62
2022/02/12 01:51:40;;;;;;;;;;;;;;;14.06;54.47;102903.06;1013719;29;753;-62
2022/02/12 01:52:31;;;;;;;;;;;;;;;14.06;53.78;102913.78;1013705;29;865;-61
2022/02/12 01:53:21;;;;;;;;;;;;;;;14.08;54.26;102906.53;1016965;29;1197;-62
2022/02/12 01:54:12;;;;;;;;;;;;;;;14.06;54.18;102911.09;1017692;29;704;-61
2022/02/12 01:55:02;;;;;;;;;;;;;;;14.05;53.86;102906.66;1017664;29;699;-61
2022/02/12 01:55:52;;;;;;;;;;;;;;;14.04;54.37;102915.66;1017602;29;876;-62
2022/02/12 01:56:43;;;;;;;;;;;;;;;14.05;54.51;102913.84;1016073;29;854;-62
2022/02/12 01:57:33;;;;;;;;;;;;;;;14.04;54.07;102912.97;1017696;29;968;-62
2022/02/12 01:58:24;;;;;;;;;;;;;;;14.05;53.82;102904.00;1017774;29;747;-60
2022/02/12 01:59:14;;;;;;;;;;;;;;;14.04;54.24;102904.94;1017367;29;1911;-61
2022/02/12 02:00:04;;;;;;;;;;;;;;;14.03;53.68;102905.88;1017689;29;744;-61
2022/02/12 02:00:55;;;;;;;;;;;;;;;14.05;53.52;102901.31;1017363;29;2049;-61
2022/02/12 02:01:45;;;;;;;;;;;;;;;14.03;53.50;102903.19;1017706;29;682;-61
2022/02/12 02:02:39;;;;;;;;;;;;;;;14.04;54.24;102904.06;1017640;29;724;-61
2022/02/12 02:03:29;;;;;;;;;;;;;;;14.04;54.01;102904.06;1017655;29;734;-61
2022/02/12 02:04:20;;;;;;;;;;;;;;;14.03;54.21;102894.28;1017510;29;745;-60
2022/02/12 02:05:10;;;;;;;;;;;;;;;14.02;53.84;102901.44;1017541;29;1907;-61
2022/02/12 02:06:01;;;;;;;;;;;;;;;14.02;54.23;102898.75;1017636;29;760;-61
2022/02/12 02:06:51;;;;;;;;;;;;;;;14.01;54.24;102905.06;1017584;29;799;-61
2022/02/12 02:07:41;;;;;;;;;;;;;;;14.01;53.70;102899.72;1017627;29;756;-61
2022/02/12 02:08:32;;;;;;;;;;;;;;;14.01;54.18;102898.84;1017637;29;801;-61
2022/02/12 02:09:22;;;;;;;;;;;;;;;14.01;54.07;102905.06;1017612;29;799;-61
2022/02/12 02:10:13;;;;;;;;;;;;;;;14.00;54.30;102897.97;1016700;29;895;-61
2022/02/12 02:11:03;;;;;;;;;;;;;;;14.01;54.04;102904.19;1017547;29;766;-62
2022/02/12 02:11:54;;;;;;;;;;;;;;;14.00;54.27;102897.97;1017591;29;818;-61
2022/02/12 02:12:44;;;;;;;;;;;;;;;14.01;53.92;102901.50;1017568;29;814;-61
2022/02/12 02:13:35;;;;;;;;;;;;;;;14.00;54.24;102900.66;1017449;29;767;-61
2022/02/12 02:14:25;;;;;;;;;;;;;;;14.00;54.05;102897.97;1017731;29;685;-61
2022/02/12 02:15:15;;;;;;;;;;;;;;;14.00;54.19;102891.72;1016617;29;784;-62
2022/02/12 02:16:06;;;;;;;;;;;;;;;13.99;53.59;102893.53;1017292;29;756;-61
2022/02/12 02:16:56;;;;;;;;;;;;;;;13.99;53.56;102890.84;1021457;29;751;-61
2022/02/12 02:17:47;;;;;;;;;;;;;;;14.00;53.41;102895.28;1020491;29;770;-61
2022/02/12 02:18:37;;;;;;;;;;;;;;;14.00;53.72;102891.72;1020342;29;747;-61
2022/02/12 02:19:29;;;;;;;;;;;;;;;13.99;54.29;102885.50;1021730;29;839;-61
2022/02/12 02:20:20;;;;;;;;;;;;;;;13.97;54.03;102887.41;1021804;29;686;-61
2022/02/12 02:21:10;;;;;;;;;;;;;;;13.98;53.88;102883.75;1021079;29;844;-61
2022/02/12 02:22:01;;;;;;;;;;;;;;;13.99;53.54;102880.13;1020260;29;686;-61
2022/02/12 02:22:51;;;;;;;;;;;;;;;13.99;53.70;102877.47;1020347;29;686;-61
2022/02/12 02:23:42;;;;;;;;;;;;;;;13.98;53.61;102878.41;1020421;29;775;-61
2022/02/12 02:24:32;;;;;;;;;;;;;;;13.98;54.19;102877.53;1020270;29;718;-62
2022/02/12 02:25:22;;;;;;;;;;;;;;;13.96;53.46;102872.25;1020335;29;1950;-62
2022/02/12 02:26:14;;;;;;;;;;;;;;;13.96;53.97;102879.44;1022028;29;666;-61
2022/02/12 02:27:05;;;;;;;;;;;;;;;13.95;54.09;102867.84;1021291;29;1907;-62
2022/02/12 02:27:55;;;;;;;;;;;;;;;13.94;54.38;102871.47;1021423;29;833;-61
2022/02/12 02:28:47;;;;;;;;;;;;;;;13.95;53.95;102867.84;1021415;29;924;-62
2022/02/12 02:29:37;;;;;;;;;;;;;;;13.94;53.44;102866.09;1020918;29;814;-61
2022/02/12 02:30:27;;;;;;;;;;;;;;;13.95;53.49;102873.22;1021605;29;678;-63
2022/02/12 02:31:18;;;;;;;;;;;;;;;13.96;54.09;102866.03;1021504;29;713;-63
2022/02/12 02:32:08;;;;;;;;;;;;;;;13.96;54.28;102863.34;1021369;29;765;-63
2022/02/12 02:32:59;;;;;;;;;;;;;;;13.95;54.27;102861.63;1021435;29;770;-67
2022/02/12 02:33:49;;;;;;;;;;;;;;;13.95;53.46;102862.50;1021451;29;687;-66
2022/02/12 02:34:39;;;;;;;;;;;;;;;13.95;53.29;102857.13;1020940;29;698;-66
2022/02/12 02:35:30;;;;;;;;;;;;;;;13.95;54.14;102857.13;1021197;29;1667;-66
2022/02/12 02:36:20;;;;;;;;;;;;;;;13.94;53.55;102849.16;1020353;29;818;-66
2022/02/12 02:37:11;;;;;;;;;;;;;;;13.93;54.10;102859.00;1021548;29;1000;-66
2022/02/12 02:38:01;;;;;;;;;;;;;;;13.93;54.27;102855.44;1020344;29;702;-66
2022/02/12 02:38:52;;;;;;;;;;;;;;;13.93;53.92;102850.09;1020459;29;759;-67
2022/02/12 02:39:42;;;;;;;;;;;;;;;13.93;54.27;102850.09;1020420;29;830;-66
2022/02/12 02:40:32;;;;;;;;;;;;;;;13.92;54.32;102846.53;1020338;29;726;-66
2022/02/12 02:41:23;;;;;;;;;;;;;;;13.92;54.17;102843.84;1020291;29;710;-66
2022/02/12 02:42:13;;;;;;;;;;;;;;;13.92;54.28;102841.19;1020400;29;647;-66
2022/02/12 02:43:04;;;;;;;;;;;;;;;13.92;53.77;102837.63;1020403;29;719;-66
2022/02/12 02:43:54;;;;;;;;;;;;;;;13.90;54.22;102837.69;1020208;29;951;-66
2022/02/12 02:44:45;;;;;;;;;;;;;;;13.89;53.40;102830.59;1020441;29;852;-65
2022/02/12 02:45:35;;;;;;;;;;;;;;;13.89;54.28;102827.91;1020301;29;746;-66
2022/02/12 02:46:25;;;;;;;;;;;;;;;13.90;53.89;102826.97;1020541;29;679;-66
2022/02/12 02:47:40;;;;;;;;;;;;;;;13.90;54.35;102829.66;1020259;29;689;-66
2022/02/12 02:48:30;;;;;;;;;;;;;;;13.89;53.40;102822.56;1021429;29;658;-65
2022/02/12 02:49:21;;;;;;;;;;;;;;;13.89;54.19;102823.44;1020497;29;657;-62
2022/02/12 02:56:00;;;;;;;;;;;;;;;13.90;53.20;102818.94;1021325;29;658;-63
2022/02/12 02:56:50;;;;;;;;;;;;;;;13.89;54.13;102817.19;1021590;29;758;-62
2022/02/12 02:57:41;;;;;;;;;;;;;;;13.88;54.02;102818.13;1021445;29;801;-63
2022/02/12 02:58:32;;;;;;;;;;;;;;;13.87;53.51;102821.75;1020906;29;682;-64
2022/02/12 02:59:23;;;;;;;;;;;;;;;13.88;54.23;102820.81;1020976;29;852;-63
2022/02/12 03:00:14;;;;;;;;;;;;;;;13.90;53.70;102816.25;1021471;29;699;-63
2022/02/12 03:01:04;;;;;;;;;;;;;;;13.88;53.60;102818.13;1020960;29;855;-63
2022/02/12 03:01:55;;;;;;;;;;;;;;;13.88;53.44;102819.00;1021576;29;869;-63
2022/02/12 03:02:46;;;;;;;;;;;;;;;13.89;54.16;102819.88;1020866;29;678;-64
2022/02/12 03:03:37;;;;;;;;;;;;;;;13.88;53.80;102826.19;1020922;29;882;-63
2022/02/12 03:04:27;;;;;;;;;;;;;;;13.88;53.77;102812.78;1021454;29;691;-63
2022/02/12 03:05:17;;;;;;;;;;;;;;;13.86;54.37;102812.84;1021244;29;1906;-62
2022/02/12 03:06:08;;;;;;;;;;;;;;;13.87;54.37;102811.91;1020918;29;785;-63
2022/02/12 03:06:58;;;;;;;;;;;;;;;13.86;53.57;102810.16;1021334;29;740;-63
2022/02/12 03:07:49;;;;;;;;;;;;;;;13.84;53.86;102804.00;1021622;29;807;-63
2022/02/12 03:08:39;;;;;;;;;;;;;;;13.85;54.24;102803.06;1022039;29;1882;-62
2022/02/12 03:09:29;;;;;;;;;;;;;;;13.85;53.84;102807.56;1021106;29;702;-63
2022/02/12 03:10:20;;;;;;;;;;;;;;;13.84;54.40;102805.81;1021450;29;1512;-62
2022/02/12 03:11:10;;;;;;;;;;;;;;;13.85;53.52;102810.25;1022238;29;638;-62
2022/02/12 03:12:01;;;;;;;;;;;;;;;13.83;54.03;102804.06;1022060;29;821;-62
2022/02/12 03:12:51;;;;;;;;;;;;;;;13.84;54.39;102803.13;1022111;29;663;-62
2022/02/12 03:13:42;;;;;;;;;;;;;;;13.83;53.84;102798.72;1022042;29;960;-63
2022/02/12 03:14:32;;;;;;;;;;;;;;;13.82;53.99;102802.34;1022122;29;627;-63
2022/02/12 03:15:22;;;;;;;;;;;;;;;13.83;53.71;102806.75;1022042;29;714;-64
2022/02/12 03:16:13;;;;;;;;;;;;;;;13.83;53.75;102809.44;1022226;29;758;-63
2022/02/12 03:17:04;;;;;;;;;;;;;;;13.83;54.24;102807.63;1021717;29;698;-63
2022/02/12 03:17:54;;;;;;;;;;;;;;;13.83;53.66;102804.06;1022071;29;847;-64
2022/02/12 03:18:45;;;;;;;;;;;;;;;13.81;54.14;102798.78;1022006;29;922;-64
2022/02/12 03:19:35;;;;;;;;;;;;;;;13.84;54.42;102800.47;1021506;29;653;-64
2022/02/12 03:20:26;;;;;;;;;;;;;;;13.85;54.48;102810.25;1021518;29;849;-64
2022/02/12 03:21:16;;;;;;;;;;;;;;;13.84;53.90;102804.00;1022113;29;663;-63
2022/02/12 03:22:06;;;;;;;;;;;;;;;13.83;54.09;102812.13;1021909;29;2023;-64
2022/02/12 03:22:57;;;;;;;;;;;;;;;13.83;54.13;102812.13;1022210;29;736;-63
2022/02/12 03:23:47;;;;;;;;;;;;;;;13.83;54.17;102812.13;1022231;29;778;-63
2022/02/12 03:24:38;;;;;;;;;;;;;;;13.82;54.10;102808.56;1022149;29;733;-63
2022/02/12 03:25:28;;;;;;;;;;;;;;;13.82;54.48;102799.66;1021984;29;1960;-63
2022/02/12 03:26:18;;;;;;;;;;;;;;;13.82;54.11;102802.34;1022161;29;910;-63
2022/02/12 03:27:09;;;;;;;;;;;;;;;13.82;53.65;102805.03;1021549;29;693;-64
2022/02/12 03:27:59;;;;;;;;;;;;;;;13.81;54.40;102806.81;1022179;29;734;-63
2022/02/12 03:28:50;;;;;;;;;;;;;;;13.82;54.03;102805.03;1022161;29;693;-63
2022/02/12 03:29:40;;;;;;;;;;;;;;;13.81;54.34;102806.81;1022095;29;739;-63
2022/02/12 03:30:31;;;;;;;;;;;;;;;13.80;53.72;102797.03;1022037;29;924;-63
2022/02/12 03:31:21;;;;;;;;;;;;;;;13.78;54.26;102795.41;1021472;29;776;-63
2022/02/12 03:32:11;;;;;;;;;;;;;;;13.78;53.62;102806.13;1022131;29;746;-64
2022/02/12 03:33:02;;;;;;;;;;;;;;;13.79;53.78;102797.16;1022095;29;646;-64
2022/02/12 03:33:52;;;;;;;;;;;;;;;13.77;54.36;102797.22;1022018;29;1028;-63
2022/02/12 03:34:43;;;;;;;;;;;;;;;13.78;53.75;102795.41;1022042;29;767;-64
2022/02/12 03:35:34;;;;;;;;;;;;;;;13.78;53.75;102787.38;1021517;29;712;-63
2022/02/12 03:36:24;;;;;;;;;;;;;;;13.78;53.79;102792.72;1021489;29;695;-64
2022/02/12 03:37:14;;;;;;;;;;;;;;;13.77;54.05;102791.00;1017075;29;1953;-64
2022/02/12 03:38:05;;;;;;;;;;;;;;;13.77;54.21;102788.31;1017892;29;659;-64
2022/02/12 03:38:55;;;;;;;;;;;;;;;13.79;54.08;102783.75;1021261;29;830;-64
2022/02/12 03:39:46;;;;;;;;;;;;;;;13.78;54.12;102788.25;1022152;29;818;-64
2022/02/12 03:40:36;;;;;;;;;;;;;;;13.76;54.23;102784.75;1021959;29;757;-64
2022/02/12 03:41:26;;;;;;;;;;;;;;;13.76;53.64;102778.53;1022034;29;644;-64
2022/02/12 03:42:17;;;;;;;;;;;;;;;13.77;54.47;102786.50;1022149;29;687;-64
2022/02/12 03:43:07;;;;;;;;;;;;;;;13.76;54.09;102787.44;1021903;29;850;-64
2022/02/12 03:43:58;;;;;;;;;;;;;;;13.74;54.49;102781.28;1022092;29;797;-64
2022/02/12 03:44:48;;;;;;;;;;;;;;;13.75;54.00;102779.47;1022166;29;798;-63
2022/02/12 03:45:38;;;;;;;;;;;;;;;13.74;53.77;102783.09;1022043;29;804;-63
2022/02/12 03:46:29;;;;;;;;;;;;;;;13.74;53.97;102783.09;1022101;29;677;-64
2022/02/12 03:47:19;;;;;;;;;;;;;;;13.74;54.09;102772.38;1021979;29;854;-63
2022/02/12 03:48:10;;;;;;;;;;;;;;;13.75;54.11;102779.47;1022047;29;720;-64
2022/02/12 03:49:00;;;;;;;;;;;;;;;13.75;53.98;102776.78;1021908;29;1047;-63
2022/02/12 03:49:51;;;;;;;;;;;;;;;13.76;53.93;102773.16;1021997;29;749;-64
2022/02/12 03:50:42;;;;;;;;;;;;;;;13.74;54.26;102775.91;1021919;29;811;-64
2022/02/12 03:51:33;;;;;;;;;;;;;;;13.75;54.26;102779.47;1021487;29;752;-63
2022/02/12 03:52:23;;;;;;;;;;;;;;;13.75;54.10;102768.75;1021466;29;730;-63
2022/02/12 03:53:13;;;;;;;;;;;;;;;13.74;54.38;102775.06;1021961;29;1205;-64
2022/02/12 03:54:04;;;;;;;;;;;;;;;13.74;54.17;102772.38;1021996;29;757;-63
2022/02/12 03:54:54;;;;;;;;;;;;;;;13.73;54.62;102766.16;1022098;29;774;-62
2022/02/12 03:55:45;;;;;;;;;;;;;;;13.73;53.80;102766.16;1021960;29;751;-63
2022/02/12 03:56:35;;;;;;;;;;;;;;;13.74;53.73;102769.69;1022011;29;743;-63
2022/02/12 03:57:25;;;;;;;;;;;;;;;13.72;54.29;102764.41;1022000;29;868;-63
2022/02/12 03:58:16;;;;;;;;;;;;;;;13.71;54.02;102761.78;1018066;29;727;-63
2022/02/12 03:59:07;;;;;;;;;;;;;;;13.70;54.74;102766.28;1019309;28;729;-63
2022/02/12 03:59:57;;;;;;;;;;;;;;;13.70;54.44;102757.38;1017339;29;861;-63
2022/02/12 04:00:47;;;;;;;;;;;;;;;13.69;53.98;102758.31;1019280;28;725;-63
2022/02/12 04:01:38;;;;;;;;;;;;;;;13.70;53.98;102760.94;1019018;28;824;-63
2022/02/12 04:02:28;;;;;;;;;;;;;;;13.71;54.19;102751.94;1019211;28;666;-62
2022/02/12 04:03:19;;;;;;;;;;;;;;;13.69;53.72;102753.81;1019082;28;694;-62
2022/02/12 04:04:09;;;;;;;;;;;;;;;13.69;53.86;102756.50;1019141;28;1103;-62
2022/02/12 04:05:00;;;;;;;;;;;;;;;13.69;54.71;102759.19;1019143;28;717;-62
2022/02/12 04:05:50;;;;;;;;;;;;;;;13.69;53.91;102747.59;1019149;29;796;-62
2022/02/12 04:06:40;;;;;;;;;;;;;;;13.70;53.68;102749.34;1019111;29;705;-62
2022/02/12 04:07:31;;;;;;;;;;;;;;;13.68;53.97;102753.91;1018140;29;721;-62
2022/02/12 04:08:23;;;;;;;;;;;;;;;13.69;53.85;102752.97;1017666;29;780;-62
2022/02/12 04:09:14;;;;;;;;;;;;;;;13.68;54.46;102756.56;1017068;29;766;-62
2022/02/12 04:10:04;;;;;;;;;;;;;;;13.68;54.16;102753.91;1017380;29;855;-62
2022/02/12 04:10:54;;;;;;;;;;;;;;;13.69;54.66;102753.81;1017561;29;779;-62
2022/02/12 04:11:45;;;;;;;;;;;;;;;13.70;54.72;102752.00;1017514;29;751;-62
2022/02/12 04:12:35;;;;;;;;;;;;;;;13.69;53.83;102764.53;1017382;29;665;-62
2022/02/12 04:13:26;;;;;;;;;;;;;;;13.69;53.85;102752.97;1017432;29;802;-62
2022/02/12 04:14:16;;;;;;;;;;;;;;;13.68;53.52;102751.22;1017421;29;746;-62
2022/02/12 04:15:06;;;;;;;;;;;;;;;13.67;54.38;102750.34;1017557;29;774;-63
2022/02/12 04:15:57;;;;;;;;;;;;;;;13.68;54.20;102751.22;1017463;29;718;-63
2022/02/12 04:16:47;;;;;;;;;;;;;;;13.67;54.34;102746.81;1017460;29;783;-63
2022/02/12 04:17:38;;;;;;;;;;;;;;;13.67;53.67;102744.13;1017469;29;758;-62
2022/02/12 04:18:28;;;;;;;;;;;;;;;13.67;54.27;102746.81;1017306;29;749;-63
2022/02/12 04:19:18;;;;;;;;;;;;;;;13.66;54.24;102739.69;1017319;29;651;-63
2022/02/12 04:20:09;;;;;;;;;;;;;;;13.66;53.66;102747.75;1017440;29;654;-63
2022/02/12 04:20:59;;;;;;;;;;;;;;;13.66;53.93;102745.94;1017296;29;1056;-63
2022/02/12 04:21:50;;;;;;;;;;;;;;;13.65;54.63;102746.88;1017615;29;696;-63
2022/02/12 04:22:41;;;;;;;;;;;;;;;13.66;53.96;102747.75;1017276;29;774;-63
2022/02/12 04:23:31;;;;;;;;;;;;;;;13.65;54.53;102740.63;1018046;29;618;-63
2022/02/12 04:24:23;;;;;;;;;;;;;;;13.65;54.68;102746.88;1021264;29;1892;-63
2022/02/12 04:25:13;;;;;;;;;;;;;;;13.65;54.71;102740.63;1021811;29;1911;-64
2022/02/12 04:26:05;;;;;;;;;;;;;;;13.63;53.69;102740.72;1020714;29;1986;-63
2022/02/12 04:26:55;;;;;;;;;;;;;;;13.65;53.66;102741.50;1021259;29;782;-63
2022/02/12 04:27:46;;;;;;;;;;;;;;;13.65;54.72;102735.28;1021920;29;674;-63
2022/02/12 04:28:37;;;;;;;;;;;;;;;13.63;54.14;102735.34;1021883;29;710;-63
2022/02/12 04:29:28;;;;;;;;;;;;;;;13.66;54.50;102742.38;1021463;29;779;-63
2022/02/12 04:30:18;;;;;;;;;;;;;;;13.65;54.16;102738.84;1021893;29;651;-64
2022/02/12 04:31:09;;;;;;;;;;;;;;;13.64;54.40;102738.91;1021911;29;850;-63
2022/02/12 04:31:59;;;;;;;;;;;;;;;13.63;54.48;102735.34;1021927;29;808;-63